Time;durP1;ratioP1;P1;durP2;ratioP2;P2;SDS_P1;SDS_P2;PMS_P1;PMS_P2;Temp;Humidity;BMP_temperature;BMP_pressure;BME280_temperature;BME280_humidity;BME280_pressure;Samples;Min_cycle;Max_cycle;Signal;HPM_P1;HPM_P2
2022/08/19 08:01:49;;;;;;;46.85;41.80;;;;;;;19.28;90.58;101292.72;5391689;27;20200;-71
2022/08/19 08:10:09;;;;;;;46.28;41.65;;;;;;;19.52;90.26;101294.06;5351779;27;20520;-69
2022/08/19 08:12:46;;;;;;;43.63;39.08;;;;;;;19.87;89.07;101291.09;5385378;27;20022;-69
2022/08/19 08:15:18;;;;;;;37.85;33.80;;;;;;;20.17;87.19;101297.44;5377066;27;20030;-70
2022/08/19 08:17:49;;;;;;;48.97;44.22;;;;;;;19.62;88.92;101296.50;5373911;27;20457;-70
2022/08/19 08:20:24;;;;;;;37.75;34.08;;;;;;;20.17;87.47;101300.25;5385943;27;20030;-71
2022/08/19 08:25:45;;;;;;;38.08;34.45;;;;;;;20.32;86.19;101308.09;5371367;27;20038;-70
2022/08/19 08:28:17;;;;;;;38.22;34.45;;;;;;;20.37;85.38;101310.69;5385136;27;20022;-70
2022/08/19 08:30:49;;;;;;;36.92;33.33;;;;;;;20.71;83.90;101313.53;5364059;27;20030;-69
2022/08/19 08:33:23;;;;;;;77.75;65.45;;;;;;;20.21;85.39;101312.50;5363224;27;20015;-70
2022/08/19 08:35:55;;;;;;;46.78;42.10;;;;;;;20.19;85.65;101314.81;5364168;27;20035;-69
2022/08/19 08:38:31;;;;;;;39.70;35.90;;;;;;;20.40;84.85;101315.66;5363937;27;20015;-69
2022/08/19 08:41:30;;;;;;;45.28;40.80;;;;;;;20.28;85.98;101321.22;5378694;27;20087;-68
2022/08/19 08:44:04;;;;;;;39.38;35.38;;;;;;;20.62;84.47;101334.19;5366877;27;20026;-68
2022/08/19 08:46:50;;;;;;;36.22;32.53;;;;;;;20.50;84.23;101331.28;5363274;27;20431;-68
2022/08/19 08:49:24;;;;;;;34.20;30.52;;;;;;;20.73;83.45;101328.94;5372112;27;20114;-68
2022/08/19 08:52:10;;;;;;;36.42;32.67;;;;;;;20.49;84.13;101337.28;5363892;27;20029;-69
2022/08/19 08:54:46;;;;;;;35.13;31.80;;;;;;;20.65;83.29;101331.84;5362642;27;20067;-68
2022/08/19 08:57:44;;;;;;;32.85;29.60;;;;;;;20.85;82.25;101331.81;5372280;27;20366;-69
2022/08/19 09:00:20;;;;;;;37.55;32.72;;;;;;;20.44;84.44;101329.84;5372565;27;20113;-69
2022/08/19 09:02:54;;;;;;;34.20;30.80;;;;;;;20.49;84.25;101320.38;5363247;27;20113;-69
2022/08/19 09:05:40;;;;;;;34.28;28.88;;;;;;;20.62;84.02;101319.28;5363871;27;20041;-68
2022/08/19 09:08:22;;;;;;;36.38;32.53;;;;;;;20.40;84.51;101318.47;5371724;27;20169;-70
2022/08/19 09:10:57;;;;;;;51.33;46.42;;;;;;;20.61;83.60;101318.47;5374261;27;20080;-66
2022/08/19 09:13:28;;;;;;;42.53;38.03;;;;;;;20.70;83.44;101318.38;5356483;27;20091;-69
2022/08/19 09:16:18;;;;;;;41.28;35.17;;;;;;;20.89;82.37;101322.63;5361856;27;20030;-69
2022/08/19 09:18:57;;;;;;;41.33;37.03;;;;;;;20.97;82.17;101322.56;5349087;27;20008;-68
2022/08/19 09:21:28;;;;;;;36.47;32.58;;;;;;;21.04;81.05;101322.81;5357208;27;20027;-68
2022/08/19 09:24:01;;;;;;;33.63;29.88;;;;;;;21.18;80.41;101332.94;5360267;27;20019;-69
2022/08/19 09:26:34;;;;;;;33.75;30.13;;;;;;;21.34;79.44;101333.06;5365292;27;20026;-68
2022/08/19 09:29:06;;;;;;;34.63;31.23;;;;;;;21.27;79.37;101339.31;5341381;27;20390;-68
2022/08/19 09:31:37;;;;;;;36.47;32.78;;;;;;;21.17;79.97;101334.94;5359680;27;20023;-68
2022/08/19 09:34:09;;;;;;;32.10;28.60;;;;;;;21.36;78.98;101339.19;5361230;27;20066;-68
2022/08/19 09:36:40;;;;;;;34.72;31.27;;;;;;;21.17;80.03;101337.75;5368888;27;20046;-69
2022/08/19 09:39:11;;;;;;;34.80;31.25;;;;;;;20.91;80.70;101340.84;5369844;27;20062;-69
2022/08/19 09:41:43;;;;;;;36.38;32.55;;;;;;;20.98;81.06;101340.28;5369159;27;20476;-69
2022/08/19 09:44:17;;;;;;;36.45;32.75;;;;;;;20.97;81.47;101335.84;5368420;27;20037;-69
2022/08/19 09:46:49;;;;;;;39.22;35.10;;;;;;;20.85;81.50;101334.63;5369344;27;20038;-70
2022/08/19 09:49:26;;;;;;;39.92;35.72;;;;;;;20.83;81.88;101336.13;5360782;27;20098;-70
2022/08/19 09:51:57;;;;;;;39.65;35.72;;;;;;;20.91;81.71;101335.22;5356097;27;20475;-70
2022/08/19 09:54:29;;;;;;;34.47;30.90;;;;;;;21.20;80.67;101339.88;5369709;27;20090;-69
2022/08/19 09:57:01;;;;;;;35.70;30.95;;;;;;;21.13;80.56;101348.09;5360733;27;20034;-70
2022/08/19 09:59:35;;;;;;;45.28;40.85;;;;;;;21.13;80.24;101342.44;5348132;27;20015;-70
2022/08/19 10:02:07;;;;;;;34.90;31.38;;;;;;;21.17;80.05;101343.41;5347930;27;20058;-70
2022/08/19 10:07:29;;;;;;;30.27;27.10;;;;;;;21.52;78.62;101347.81;5365083;27;20465;-70
2022/08/19 10:10:01;;;;;;;35.90;32.22;;;;;;;21.19;79.38;101352.34;5347330;27;20028;-70
2022/08/19 10:12:33;;;;;;;32.92;29.35;;;;;;;21.38;79.26;101353.78;5347667;27;20326;-70
2022/08/19 10:15:06;;;;;;;31.20;27.85;;;;;;;21.54;78.47;101345.47;5347807;27;20109;-70
2022/08/19 10:17:40;;;;;;;35.70;31.40;;;;;;;21.19;80.00;101349.53;5350477;27;20129;-70
2022/08/19 10:20:11;;;;;;;34.05;30.52;;;;;;;21.20;80.07;101344.69;5369441;27;20023;-71
2022/08/19 10:22:43;;;;;;;33.70;30.17;;;;;;;21.27;80.16;101342.13;5356828;27;20064;-69
2022/08/19 10:25:17;;;;;;;33.17;29.83;;;;;;;21.18;80.13;101336.56;5358393;27;20026;-70
2022/08/19 10:27:48;;;;;;;30.20;27.10;;;;;;;21.51;78.86;101324.41;5369218;27;20058;-70
2022/08/19 10:30:20;;;;;;;32.97;29.67;;;;;;;21.44;78.75;101338.28;5369187;27;20051;-69
2022/08/19 10:32:51;;;;;;;33.30;29.75;;;;;;;21.51;78.29;101335.69;5368244;27;20023;-69
2022/08/19 10:35:23;;;;;;;31.20;28.02;;;;;;;21.56;77.71;101337.47;5368846;27;20023;-70
2022/08/19 10:37:59;;;;;;;34.25;30.23;;;;;;;21.55;77.93;101342.28;5368886;27;20030;-72
2022/08/19 10:40:30;;;;;;;32.92;29.55;;;;;;;21.65;77.78;101338.16;5352585;27;20023;-70
2022/08/19 10:43:01;;;;;;;34.47;30.88;;;;;;;21.57;77.75;101336.28;5349993;27;20034;-70
2022/08/19 10:45:32;;;;;;;29.70;26.58;;;;;;;21.75;77.29;101334.03;5346352;27;20015;-69
2022/08/19 10:48:04;;;;;;;40.38;36.13;;;;;;;21.58;77.80;101332.31;5353344;27;20097;-69
2022/08/19 10:53:26;;;;;;;31.77;28.38;;;;;;;21.71;76.83;101326.28;5365002;27;20035;-70
2022/08/19 10:58:48;;;;;;;31.55;28.27;;;;;;;21.84;76.72;101327.09;5354027;27;20474;-71
2022/08/19 11:01:20;;;;;;;28.30;25.45;;;;;;;22.06;75.64;101317.31;5345569;27;20170;-71
2022/08/19 11:03:52;;;;;;;32.08;28.77;;;;;;;21.80;76.06;101319.69;5361213;27;20561;-71
2022/08/19 11:06:25;;;;;;;31.65;28.50;;;;;;;21.93;76.03;101321.31;5367933;27;20083;-71
2022/08/19 11:08:56;;;;;;;60.80;54.72;;;;;;;21.92;75.37;101326.13;5368143;27;20109;-71
2022/08/19 11:11:28;;;;;;;36.78;32.85;;;;;;;21.90;75.27;101320.00;5367420;27;20449;-71
2022/08/19 11:13:59;;;;;;;34.88;31.17;;;;;;;22.00;75.28;101320.72;5352590;27;20119;-72
2022/08/19 11:16:31;;;;;;;35.28;31.60;;;;;;;22.04;75.33;101322.47;5355017;27;20381;-72
2022/08/19 11:19:02;;;;;;;34.78;31.17;;;;;;;22.17;75.05;101322.44;5367592;27;20387;-72
2022/08/19 11:21:36;;;;;;;35.80;32.38;;;;;;;22.14;75.08;101318.34;5346824;27;20149;-71
2022/08/19 11:24:15;;;;;;;34.45;30.85;;;;;;;22.32;74.59;101321.72;5366526;27;20071;-72
2022/08/19 11:26:50;;;;;;;32.05;29.02;;;;;;;22.39;74.14;101329.56;5366123;27;20049;-71
2022/08/19 11:29:25;;;;;;;37.33;31.83;;;;;;;22.36;74.10;101320.63;5363085;27;20015;-71
2022/08/19 11:31:56;;;;;;;;;;;;;;;22.46;74.20;101319.31;5347453;27;20122;-70
2022/08/19 11:34:29;;;;;;;34.08;30.10;;;;;;;22.41;75.04;101305.44;5361742;27;20006;-70
2022/08/19 11:37:00;;;;;;;47.78;43.35;;;;;;;22.20;73.13;101307.63;5365700;27;20023;-71
2022/08/19 11:39:34;;;;;;;53.38;34.50;;;;;;;22.14;73.30;101299.38;5367608;27;20037;-70
2022/08/19 11:42:54;;;;;;;31.08;27.77;;;;;;;22.40;73.62;101300.16;5351862;27;20031;-70
2022/08/19 11:44:57;;;;;;;28.42;25.48;;;;;;;22.48;72.91;101299.16;5364438;27;20103;-70
2022/08/19 11:47:30;;;;;;;29.02;25.77;;;;;;;22.53;72.16;101299.72;5357240;27;20474;-71
2022/08/19 11:50:05;;;;;;;29.02;25.98;;;;;;;22.69;72.20;101298.94;5354645;27;20038;-71
2022/08/19 11:52:36;;;;;;;;;;;;;;;22.75;72.67;101303.16;5367993;27;20052;-71
2022/08/19 11:55:08;;;;;;;29.35;26.17;;;;;;;22.54;72.20;101300.53;5367332;27;19937;-71
2022/08/19 11:57:43;;;;;;;30.92;27.73;;;;;;;22.74;71.91;101307.97;5362119;27;20035;-71
2022/08/19 12:00:15;;;;;;;29.55;26.65;;;;;;;22.75;71.85;101291.84;5366494;27;20485;-70
2022/08/19 12:02:47;;;;;;;29.38;26.58;;;;;;;22.87;72.12;101300.25;5366664;27;20045;-70
2022/08/19 12:05:18;;;;;;;31.75;28.65;;;;;;;22.74;71.73;101304.34;5351078;27;20023;-70
2022/08/19 12:07:49;;;;;;;35.88;30.38;;;;;;;22.66;72.09;101305.31;5361951;27;20486;-70
2022/08/19 12:10:21;;;;;;;34.28;30.80;;;;;;;22.63;72.56;101311.72;5366069;27;20015;-70
2022/08/19 12:12:52;;;;;;;31.67;28.38;;;;;;;22.68;72.91;101314.28;5367638;27;20027;-70
2022/08/19 12:15:23;;;;;;;32.65;29.50;;;;;;;22.71;72.52;101307.91;5367584;27;20033;-70
2022/08/19 12:17:56;;;;;;;31.15;27.85;;;;;;;22.81;72.57;101312.22;5364991;27;20026;-72
2022/08/19 12:20:28;;;;;;;29.35;26.58;;;;;;;22.79;72.34;101302.06;5354609;27;20105;-70
2022/08/19 12:23:09;;;;;;;30.38;27.30;;;;;;;22.76;72.36;101311.28;5347031;27;20035;-70
2022/08/19 12:25:49;;;;;;;29.50;26.75;;;;;;;22.78;72.92;101310.94;5362682;27;20127;-71
2022/08/19 12:28:23;;;;;;;30.83;27.67;;;;;;;22.79;72.91;101298.41;5359228;27;20038;-70
2022/08/19 12:30:56;;;;;;;27.90;24.00;;;;;;;22.80;73.03;101291.56;5364695;27;20038;-70
2022/08/19 12:33:28;;;;;;;27.60;24.85;;;;;;;22.95;72.12;101293.59;5365474;27;20034;-70
2022/08/19 12:36:02;;;;;;;26.25;23.60;;;;;;;22.97;71.82;101299.75;5364915;27;20011;-70
2022/08/19 12:38:34;;;;;;;28.13;25.27;;;;;;;23.19;71.29;101295.47;5356325;27;20031;-70
2022/08/19 12:41:08;;;;;;;26.58;23.73;;;;;;;23.35;70.90;101286.97;5364653;27;20034;-72
2022/08/19 12:43:41;;;;;;;25.97;23.47;;;;;;;23.48;70.78;101289.72;5355831;27;20025;-73
2022/08/19 12:46:13;;;;;;;26.35;23.55;;;;;;;23.46;70.77;101292.06;5363014;27;20333;-71
2022/08/19 12:48:45;;;;;;;26.73;23.90;;;;;;;23.46;71.06;101286.41;5361925;27;20053;-72
2022/08/19 12:51:19;;;;;;;29.40;24.20;;;;;;;23.49;71.12;101285.69;5369179;27;20019;-72
2022/08/19 12:53:50;;;;;;;28.70;25.77;;;;;;;23.34;71.27;101285.34;5354678;27;20038;-73
2022/08/19 12:56:21;;;;;;;28.58;25.58;;;;;;;23.25;71.31;101287.53;5353177;27;20038;-72
2022/08/19 12:58:56;;;;;;;27.25;24.52;;;;;;;23.29;71.38;101288.44;5349230;27;20080;-73
2022/08/19 13:01:30;;;;;;;33.27;24.67;;;;;;;23.22;71.59;101274.13;5349486;27;20146;-72
2022/08/19 13:04:01;;;;;;;26.10;23.38;;;;;;;23.21;71.94;101278.97;5356719;27;20030;-73
2022/08/19 13:06:32;;;;;;;57.08;51.60;;;;;;;23.20;72.40;101277.31;5357079;27;20042;-74
2022/08/19 13:09:05;;;;;;;33.40;30.17;;;;;;;23.29;72.58;101279.13;5349520;27;20114;-74
2022/08/19 13:11:37;;;;;;;21.73;19.55;;;;;;;23.30;72.57;101278.75;5352285;27;20023;-75
2022/08/19 13:14:08;;;;;;;21.92;19.65;;;;;;;23.22;73.01;101272.09;5366598;27;20084;-74
2022/08/19 13:16:41;;;;;;;19.67;17.67;;;;;;;23.12;73.54;101281.16;5369960;27;20027;-73
2022/08/19 13:19:13;;;;;;;22.98;20.77;;;;;;;23.11;73.59;101279.50;5370868;27;20018;-72
2022/08/19 13:21:44;;;;;;;18.75;16.95;;;;;;;23.17;74.09;101280.88;5352400;27;20500;-71
2022/08/19 13:24:15;;;;;;;17.73;16.08;;;;;;;23.24;73.49;101285.91;5365320;27;20026;-70
2022/08/19 13:26:50;;;;;;;17.30;15.55;;;;;;;23.26;73.33;101283.50;5370905;27;20038;-69
2022/08/19 13:35:02;;;;;;;15.32;13.65;;;;;;;23.19;73.72;101274.84;5367983;27;20027;-76
2022/08/19 13:37:43;;;;;;;15.90;14.25;;;;;;;23.34;73.26;101267.53;5357809;27;20127;-71
2022/08/19 13:40:21;;;;;;;15.15;13.75;;;;;;;23.30;73.17;101266.63;5370165;27;20033;-72
2022/08/19 13:42:54;;;;;;;21.95;14.10;;;;;;;23.33;73.79;101260.22;5369048;27;20041;-71
2022/08/19 13:45:27;;;;;;;15.93;14.10;;;;;;;23.22;73.89;101262.81;5367778;27;20074;-73
2022/08/19 13:48:00;;;;;;;15.57;14.10;;;;;;;23.34;73.11;101271.19;5360876;27;20102;-73
2022/08/19 13:50:32;;;;;;;14.45;13.02;;;;;;;23.39;73.01;101262.44;5348229;27;20072;-70
2022/08/19 13:53:03;;;;;;;50.55;45.97;;;;;;;23.17;74.07;101257.41;5348621;27;20110;-73
2022/08/19 13:55:38;;;;;;;20.52;18.58;;;;;;;23.23;74.12;101255.94;5354764;27;20162;-74
2022/08/19 13:58:10;;;;;;;14.93;13.43;;;;;;;23.25;74.35;101258.41;5368094;27;20098;-73
2022/08/19 14:00:45;;;;;;;14.05;11.68;;;;;;;23.18;74.38;101257.03;5369630;27;20050;-73
2022/08/19 14:03:17;;;;;;;15.98;14.50;;;;;;;23.26;74.33;101248.72;5366157;27;20030;-73
2022/08/19 14:05:48;;;;;;;14.77;13.13;;;;;;;23.31;73.96;101249.28;5359443;27;20071;-73
2022/08/19 14:08:20;;;;;;;13.10;11.82;;;;;;;23.35;73.84;101240.88;5342455;27;20020;-72
2022/08/19 14:10:51;;;;;;;17.50;15.90;;;;;;;23.28;74.32;101241.53;5361773;27;20422;-73
2022/08/19 14:13:23;;;;;;;16.50;14.70;;;;;;;23.37;74.04;101235.69;5364015;27;20030;-73
2022/08/19 14:15:54;;;;;;;15.02;13.63;;;;;;;23.36;73.83;101234.84;5349274;27;20027;-74
2022/08/19 14:18:26;;;;;;;15.70;14.15;;;;;;;23.43;73.04;101242.69;5347325;27;20035;-74
2022/08/19 14:20:57;;;;;;;15.63;13.90;;;;;;;23.58;72.78;101241.03;5358000;27;20381;-73
2022/08/19 14:23:29;;;;;;;13.68;12.25;;;;;;;23.98;71.80;101243.56;5365090;27;20037;-74
2022/08/19 14:26:06;;;;;;;14.65;13.25;;;;;;;24.02;70.49;101229.47;5347747;27;20354;-74
2022/08/19 14:28:41;;;;;;;15.15;13.70;;;;;;;23.90;70.84;101227.59;5347854;27;20098;-73
2022/08/19 14:31:18;;;;;;;15.32;13.73;;;;;;;23.96;70.53;101225.31;5347145;27;20029;-72
2022/08/19 14:33:50;;;;;;;13.55;12.23;;;;;;;24.08;70.01;101217.47;5347510;27;20102;-72
2022/08/19 14:36:21;;;;;;;15.93;14.32;;;;;;;24.00;70.20;101227.00;5348982;27;20027;-73
2022/08/19 14:38:53;;;;;;;13.48;12.25;;;;;;;23.86;69.98;101224.69;5351503;27;20030;-73
2022/08/19 14:41:24;;;;;;;13.65;12.35;;;;;;;23.78;70.13;101220.06;5368691;27;20593;-71
2022/08/19 14:43:56;;;;;;;77.95;70.65;;;;;;;23.83;70.15;101216.13;5368762;27;20019;-73
2022/08/19 14:46:28;;;;;;;18.10;16.40;;;;;;;23.79;70.78;101212.38;5366774;27;20079;-73
2022/08/19 14:49:00;;;;;;;14.95;13.45;;;;;;;23.77;70.79;101226.91;5369090;27;20058;-72
2022/08/19 14:51:32;;;;;;;14.43;13.13;;;;;;;23.85;71.62;101213.72;5368023;27;20504;-72
2022/08/19 14:54:03;;;;;;;22.10;19.98;;;;;;;23.71;71.07;101228.38;5366950;27;20026;-75
2022/08/19 14:56:34;;;;;;;26.52;24.23;;;;;;;23.72;71.38;101218.72;5362450;27;20037;-72
2022/08/19 14:59:06;;;;;;;18.98;17.17;;;;;;;23.77;71.29;101212.75;5346160;27;20025;-72
2022/08/19 15:01:37;;;;;;;23.10;20.90;;;;;;;23.69;70.95;101222.25;5346869;27;20504;-72
2022/08/19 15:04:08;;;;;;;23.15;20.98;;;;;;;23.66;71.12;101223.00;5348588;27;20034;-71
2022/08/19 15:06:42;;;;;;;53.33;48.45;;;;;;;23.69;71.22;101218.59;5357536;27;20026;-73
2022/08/19 15:09:13;;;;;;;15.95;14.45;;;;;;;23.72;71.94;101217.84;5367817;27;20023;-72
2022/08/19 15:11:45;;;;;;;17.42;14.60;;;;;;;23.93;71.72;101226.03;5355242;27;20099;-73
2022/08/19 15:14:16;;;;;;;13.57;12.27;;;;;;;23.95;71.24;101221.63;5354043;27;20030;-71
2022/08/19 15:16:47;;;;;;;14.63;13.13;;;;;;;23.96;70.48;101226.13;5346628;27;20015;-71
2022/08/19 15:19:20;;;;;;;15.15;12.90;;;;;;;24.03;70.45;101223.44;5347457;27;20019;-71
2022/08/19 15:21:54;;;;;;;21.90;19.63;;;;;;;23.89;69.77;101219.47;5354846;27;20027;-73
2022/08/19 15:24:28;;;;;;;29.95;26.92;;;;;;;23.94;70.35;101227.69;5347840;27;20027;-73
2022/08/19 15:26:59;;;;;;;15.00;13.50;;;;;;;24.02;70.32;101218.13;5345712;27;20057;-73
2022/08/19 15:29:32;;;;;;;13.55;12.15;;;;;;;24.08;70.59;101225.13;5347512;27;20426;-73
2022/08/19 15:32:05;;;;;;;11.85;10.75;;;;;;;23.95;69.05;101232.16;5359023;27;20031;-74
2022/08/19 15:34:37;;;;;;;13.07;11.70;;;;;;;23.94;69.50;101224.84;5351948;27;20027;-76
2022/08/19 15:37:08;;;;;;;11.55;9.57;;;;;;;24.06;68.85;101224.72;5351893;27;20338;-73
2022/08/19 15:39:39;;;;;;;10.02;9.02;;;;;;;24.08;68.59;101225.13;5353559;27;20015;-68
2022/08/19 15:42:11;;;;;;;10.30;9.35;;;;;;;24.07;68.22;101230.00;5357515;27;20039;-76
2022/08/19 15:44:42;;;;;;;9.82;8.75;;;;;;;24.17;68.27;101225.75;5353646;27;20076;-76
2022/08/19 15:47:14;;;;;;;9.95;9.05;;;;;;;24.12;68.46;101231.72;5354189;27;20021;-76
2022/08/19 15:49:45;;;;;;;10.20;9.20;;;;;;;24.08;68.78;101228.81;5356969;27;20027;-72
2022/08/19 15:52:20;;;;;;;13.73;12.43;;;;;;;24.01;68.59;101231.50;5354925;27;20110;-75
2022/08/19 15:54:51;;;;;;;11.35;10.35;;;;;;;23.82;69.64;101246.44;5345169;27;20039;-73
2022/08/19 16:08:26;;;;;;;61.97;56.35;;;;;;;23.27;76.52;101251.22;5356455;27;20039;-73
2022/08/19 16:10:57;;;;;;;52.28;47.50;;;;;;;23.10;77.84;101263.72;5352112;27;20024;-73
2022/08/19 16:13:28;;;;;;;20.15;18.23;;;;;;;23.10;78.34;101252.41;5345039;28;20034;-72
2022/08/19 16:15:59;;;;;;;15.50;14.00;;;;;;;23.00;79.36;101250.94;5348014;27;20589;-72
2022/08/19 16:18:36;;;;;;;18.42;16.63;;;;;;;22.94;80.20;101252.38;5356938;27;20194;-71
2022/08/19 16:21:08;;;;;;;15.48;13.88;;;;;;;22.79;80.24;101244.69;5353283;27;20483;-73
2022/08/19 16:23:40;;;;;;;16.23;14.63;;;;;;;22.82;80.22;101243.97;5359465;27;20015;-73
2022/08/19 16:26:14;;;;;;;15.23;13.82;;;;;;;22.82;80.40;101240.31;5370313;27;20031;-73
2022/08/19 16:28:47;;;;;;;14.05;12.65;;;;;;;22.91;80.10;101246.63;5371518;27;20018;-73
2022/08/19 16:31:18;;;;;;;15.00;12.95;;;;;;;22.86;79.82;101259.03;5371113;27;20026;-72
2022/08/19 16:33:50;;;;;;;15.23;12.10;;;;;;;22.90;79.71;101257.09;5369851;27;20035;-73
2022/08/19 16:36:23;;;;;;;12.63;11.40;;;;;;;22.88;80.00;101256.66;5359177;27;20015;-73
2022/08/19 16:38:54;;;;;;;14.90;13.38;;;;;;;22.92;79.84;101263.22;5361243;27;20397;-73
2022/08/19 16:41:26;;;;;;;13.20;11.88;;;;;;;22.83;80.28;101256.09;5371512;27;20061;-72
2022/08/19 16:43:58;;;;;;;12.15;11.05;;;;;;;22.90;79.85;101248.63;5370630;27;20026;-73
2022/08/19 16:46:30;;;;;;;12.63;11.50;;;;;;;22.67;80.96;101253.25;5361244;27;20015;-72
2022/08/19 16:49:03;;;;;;;12.90;11.43;;;;;;;22.71;80.72;101265.50;5350260;27;20449;-73
2022/08/19 16:51:36;;;;;;;13.05;11.85;;;;;;;22.72;80.68;101261.47;5349047;27;20027;-73
2022/08/19 16:54:07;;;;;;;12.75;11.55;;;;;;;22.70;80.81;101264.69;5332222;27;20394;-74
2022/08/19 16:56:39;;;;;;;13.98;12.50;;;;;;;22.64;81.41;101263.28;5364972;27;20015;-75
2022/08/19 16:59:12;;;;;;;16.77;14.10;;;;;;;22.68;83.51;101274.69;5365452;27;20026;-72
2022/08/19 17:01:46;;;;;;;14.10;12.20;;;;;;;22.69;84.73;101279.16;5359294;27;20049;-71
2022/08/19 17:04:18;;;;;;;17.13;15.32;;;;;;;22.40;86.54;101298.16;5357647;27;20041;-71
2022/08/19 17:06:49;;;;;;;24.90;22.25;;;;;;;22.32;89.65;101293.47;5350491;27;20024;-72
2022/08/19 17:09:21;;;;;;;16.60;14.77;;;;;;;22.44;89.76;101293.41;5361639;27;20022;-72
2022/08/19 17:11:52;;;;;;;15.23;13.63;;;;;;;22.35;90.47;101293.56;5370420;27;20030;-72
2022/08/19 17:14:23;;;;;;;16.35;14.68;;;;;;;22.23;91.54;101292.78;5348375;27;20461;-72
2022/08/19 17:16:54;;;;;;;17.02;15.32;;;;;;;22.13;92.94;101291.25;5350737;27;20106;-71
2022/08/19 17:19:27;;;;;;;16.77;14.95;;;;;;;22.18;96.14;101291.00;5369883;27;20014;-73
2022/08/19 17:21:58;;;;;;;16.27;12.98;;;;;;;22.10;93.50;101283.50;5353106;27;20065;-73
2022/08/19 17:24:29;;;;;;;16.20;13.13;;;;;;;22.07;92.98;101282.22;5348803;27;20529;-72
2022/08/19 17:27:01;;;;;;;12.48;9.95;;;;;;;22.15;92.76;101278.41;5354017;27;20442;-73
2022/08/19 17:29:33;;;;;;;9.23;7.65;;;;;;;22.15;92.64;101275.59;5365192;27;20030;-73
2022/08/19 17:32:06;;;;;;;11.32;7.78;;;;;;;22.09;90.30;101285.50;5348466;27;20019;-72
